Voca, Texas
Current Conditions -  °F | °C
As of 2:15 PM on Sunday 25 Jan 2015 (Local Time) from KBBD Reporting Station
Clear Clear  
Wind Chill: 64°   Ceiling: Unl
Heat Index: 64°   Visibility: 10mi
Dew Point: 30°   Wind: 14mph
Humidity: 28%   Direction: 330°NNW
Pressure: 30.15"   Gusts: NA
Location:  31.01°N, 99.19°W
Report Text: KBBD 252015Z AUTO 33012KT 10SM CLR 18/M01 A3015 RMK
Loading
Personal Weather Stations






























Interactive Weather Map New forecast layout! Learn more

10-Day Weather Forecast

Advertisements
Track Severe Weather on mobile